Time,TemperatureF,DewpointF,PressureIn,WindDirection,WindDirectionDegrees,WindSpeedMPH,WindSpeedGustMPH,Humidity,HourlyPrecipIn,Conditions,Clouds,dailyrainin,SoftwareType,DateUTC
2013-03-31 00:00:00,40.7,29.5,30.23,West,270,0.0,1.0,64,0.00,,,0.00,Wunderground v.1.15,2013-03-31 06:00:00,
2013-03-31 00:05:00,39.8,29.0,30.23,West,269,1.0,2.0,65,0.00,,,0.00,Wunderground v.1.15,2013-03-31 06:05:00,
2013-03-31 00:11:00,39.4,28.6,30.22,West,269,1.0,2.0,65,0.00,,,0.00,Wunderground v.1.15,2013-03-31 06:11:00,
2013-03-31 00:16:00,39.3,28.9,30.23,West,269,1.0,2.0,66,0.00,,,0.00,Wunderground v.1.15,2013-03-31 06:16:00,
2013-03-31 00:21:00,40.0,30.3,30.22,West,269,0.0,1.0,68,0.00,,,0.00,Wunderground v.1.15,2013-03-31 06:21:00,
2013-03-31 00:27:00,39.6,29.5,30.22,West,270,0.0,1.0,67,0.00,,,0.00,Wunderground v.1.15,2013-03-31 06:27:00,
2013-03-31 00:33:00,38.9,28.5,30.22,West,281,0.0,2.0,66,0.00,,,0.00,Wunderground v.1.15,2013-03-31 06:33:00,
2013-03-31 00:39:00,38.6,29.3,30.22,West,281,1.0,2.0,69,0.00,,,0.00,Wunderground v.1.15,2013-03-31 06:39:00,
2013-03-31 00:45:00,40.5,29.3,30.22,West,281,0.0,1.0,64,0.00,,,0.00,Wunderground v.1.15,2013-03-31 06:45:00,
2013-03-31 00:50:00,40.1,28.9,30.22,West,281,0.0,1.0,64,0.00,,,0.00,Wunderground v.1.15,2013-03-31 06:50:00,
2013-03-31 00:56:00,39.3,28.9,30.22,West,281,0.0,1.0,66,0.00,,,0.00,Wunderground v.1.15,2013-03-31 06:56:00,
2013-03-31 01:01:00,38.8,28.8,30.22,West,281,0.0,1.0,67,0.00,,,0.00,Wunderground v.1.15,2013-03-31 07:01:00,
2013-03-31 01:07:00,39.5,29.8,30.22,West,281,1.0,2.0,68,0.00,,,0.00,Wunderground v.1.15,2013-03-31 07:07:00,
2013-03-31 01:13:00,38.6,29.3,30.22,West,281,0.0,1.0,69,0.00,,,0.00,Wunderground v.1.15,2013-03-31 07:13:00,
2013-03-31 01:19:00,37.7,29.1,30.22,West,281,0.0,1.0,71,0.00,,,0.00,Wunderground v.1.15,2013-03-31 07:19:00,
2013-03-31 01:24:00,37.8,29.6,30.22,West,281,0.0,1.0,72,0.00,,,0.00,Wunderground v.1.15,2013-03-31 07:24:00,
2013-03-31 01:30:00,37.0,28.5,30.22,West,281,0.0,1.0,71,0.00,,,0.00,Wunderground v.1.15,2013-03-31 07:30:00,
2013-03-31 01:36:00,37.3,29.1,30.22,West,281,1.0,3.0,72,0.00,,,0.00,Wunderground v.1.15,2013-03-31 07:36:00,
2013-03-31 01:41:00,37.1,29.2,30.21,West,281,1.0,2.0,73,0.00,,,0.00,Wunderground v.1.15,2013-03-31 07:41:00,
2013-03-31 01:47:00,36.5,28.7,30.22,WNW,288,1.0,3.0,73,0.00,,,0.00,Wunderground v.1.15,2013-03-31 07:47:00,
2013-03-31 01:52:00,36.0,28.5,30.22,WNW,288,1.0,4.0,74,0.00,,,0.00,Wunderground v.1.15,2013-03-31 07:52:00,
2013-03-31 01:58:00,36.4,29.2,30.21,WNW,288,1.0,4.0,75,0.00,,,0.00,Wunderground v.1.15,2013-03-31 07:58:00,
2013-03-31 02:04:00,36.0,28.8,30.21,West,266,1.0,2.0,75,0.00,,,0.00,Wunderground v.1.15,2013-03-31 08:04:00,
2013-03-31 02:09:00,35.7,28.6,30.21,West,266,1.0,2.0,75,0.00,,,0.00,Wunderground v.1.15,2013-03-31 08:09:00,
2013-03-31 02:14:00,35.4,28.6,30.21,West,266,0.0,1.0,76,0.00,,,0.00,Wunderground v.1.15,2013-03-31 08:14:00,
2013-03-31 02:19:00,35.9,29.1,30.21,West,266,0.0,1.0,76,0.00,,,0.00,Wunderground v.1.15,2013-03-31 08:19:00,
2013-03-31 02:25:00,35.5,29.0,30.21,West,277,1.0,4.0,77,0.00,,,0.00,Wunderground v.1.15,2013-03-31 08:25:00,
2013-03-31 02:30:00,36.1,29.6,30.21,West,277,1.0,3.0,77,0.00,,,0.00,Wunderground v.1.15,2013-03-31 08:30:00,
2013-03-31 02:36:00,36.4,29.2,30.21,West,276,1.0,3.0,75,0.00,,,0.00,Wunderground v.1.15,2013-03-31 08:36:00,
2013-03-31 02:42:00,37.0,30.1,30.21,West,277,0.0,2.0,76,0.00,,,0.00,Wunderground v.1.15,2013-03-31 08:42:00,
2013-03-31 02:48:00,36.1,28.6,30.21,West,277,0.0,2.0,74,0.00,,,0.00,Wunderground v.1.15,2013-03-31 08:48:00,
2013-03-31 02:53:00,36.2,29.4,30.21,West,277,0.0,1.0,76,0.00,,,0.00,Wunderground v.1.15,2013-03-31 08:53:00,
2013-03-31 02:58:00,35.5,28.7,30.21,West,277,0.0,1.0,76,0.00,,,0.00,Wunderground v.1.15,2013-03-31 08:58:00,
2013-03-31 03:04:00,35.5,29.0,30.21,West,277,0.0,1.0,77,0.00,,,0.00,Wunderground v.1.15,2013-03-31 09:04:00,
2013-03-31 03:09:00,34.9,28.4,30.21,West,277,0.0,1.0,77,0.00,,,0.00,Wunderground v.1.15,2013-03-31 09:09:00,
2013-03-31 03:15:00,34.2,28.1,30.21,West,277,0.0,1.0,78,0.00,,,0.00,Wunderground v.1.15,2013-03-31 09:15:00,
2013-03-31 03:21:00,34.3,28.5,30.21,West,277,0.0,1.0,79,0.00,,,0.00,Wunderground v.1.15,2013-03-31 09:21:00,
2013-03-31 03:26:00,34.7,29.2,30.21,West,277,0.0,1.0,80,0.00,,,0.00,Wunderground v.1.15,2013-03-31 09:26:00,
2013-03-31 03:31:00,35.1,29.6,30.21,West,277,0.0,1.0,80,0.00,,,0.00,Wunderground v.1.15,2013-03-31 09:31:00,
2013-03-31 03:37:00,34.8,28.6,30.21,West,277,0.0,2.0,78,0.00,,,0.00,Wunderground v.1.15,2013-03-31 09:37:00,
2013-03-31 03:42:00,33.4,27.3,30.21,West,276,1.0,2.0,78,0.00,,,0.00,Wunderground v.1.15,2013-03-31 09:42:00,
2013-03-31 03:48:00,33.7,28.5,30.20,West,276,0.0,2.0,81,0.00,,,0.00,Wunderground v.1.15,2013-03-31 09:48:00,
2013-03-31 03:54:00,35.1,29.6,30.21,West,277,0.0,1.0,80,0.00,,,0.00,Wunderground v.1.15,2013-03-31 09:54:00,
2013-03-31 03:59:00,34.0,27.9,30.21,WNW,289,1.0,3.0,78,0.00,,,0.00,Wunderground v.1.15,2013-03-31 09:59:00,
2013-03-31 04:05:00,34.2,28.7,30.21,WNW,289,1.0,1.0,80,0.00,,,0.00,Wunderground v.1.15,2013-03-31 10:05:00,
2013-03-31 04:10:00,34.4,28.6,30.21,WNW,289,0.0,1.0,79,0.00,,,0.00,Wunderground v.1.15,2013-03-31 10:10:00,
2013-03-31 04:16:00,34.2,28.7,30.21,WNW,289,0.0,1.0,80,0.00,,,0.00,Wunderground v.1.15,2013-03-31 10:16:00,
2013-03-31 04:21:00,34.2,29.0,30.21,WNW,289,0.0,1.0,81,0.00,,,0.00,Wunderground v.1.15,2013-03-31 10:21:00,
2013-03-31 04:26:00,33.7,28.5,30.21,WNW,289,0.0,1.0,81,0.00,,,0.00,Wunderground v.1.15,2013-03-31 10:26:00,
2013-03-31 04:32:00,33.4,28.5,30.21,WNW,289,0.0,1.0,82,0.00,,,0.00,Wunderground v.1.15,2013-03-31 10:32:00,
2013-03-31 04:38:00,32.5,27.3,30.21,WNW,289,0.0,1.0,81,0.00,,,0.00,Wunderground v.1.15,2013-03-31 10:38:00,
2013-03-31 04:43:00,33.0,28.1,30.21,WNW,289,0.0,1.0,82,0.00,,,0.00,Wunderground v.1.15,2013-03-31 10:43:00,
2013-03-31 04:49:00,33.4,28.2,30.21,WNW,289,0.0,1.0,81,0.00,,,0.00,Wunderground v.1.15,2013-03-31 10:49:00,
2013-03-31 04:55:00,33.3,28.4,30.21,WNW,289,0.0,1.0,82,0.00,,,0.00,Wunderground v.1.15,2013-03-31 10:55:00,
2013-03-31 05:01:00,33.1,28.5,30.22,WNW,289,0.0,1.0,83,0.00,,,0.00,Wunderground v.1.15,2013-03-31 11:01:00,
2013-03-31 05:06:00,31.8,26.3,30.22,WNW,289,0.0,1.0,80,0.00,,,0.00,Wunderground v.1.15,2013-03-31 11:06:00,
2013-03-31 05:11:00,31.8,27.5,30.22,WNW,289,0.0,1.0,84,0.00,,,0.00,Wunderground v.1.15,2013-03-31 11:11:00,
2013-03-31 05:17:00,32.6,28.6,30.22,WNW,289,0.0,1.0,85,0.00,,,0.00,Wunderground v.1.15,2013-03-31 11:17:00,
2013-03-31 05:23:00,33.3,29.0,30.22,WNW,289,0.0,1.0,84,0.00,,,0.00,Wunderground v.1.15,2013-03-31 11:23:00,
2013-03-31 05:29:00,33.3,28.7,30.22,WNW,289,0.0,1.0,83,0.00,,,0.00,Wunderground v.1.15,2013-03-31 11:29:00,
2013-03-31 05:34:00,32.6,28.0,30.22,WNW,289,0.0,1.0,83,0.00,,,0.00,Wunderground v.1.15,2013-03-31 11:34:00,
2013-03-31 05:40:00,32.7,28.4,30.22,WNW,289,0.0,1.0,84,0.00,,,0.00,Wunderground v.1.15,2013-03-31 11:40:00,
2013-03-31 05:46:00,33.0,28.7,30.22,WNW,289,0.0,1.0,84,0.00,,,0.00,Wunderground v.1.15,2013-03-31 11:46:00,
2013-03-31 05:52:00,32.6,28.0,30.22,WNW,289,0.0,1.0,83,0.00,,,0.00,Wunderground v.1.15,2013-03-31 11:52:00,
2013-03-31 05:58:00,31.9,27.6,30.22,WNW,289,0.0,1.0,84,0.00,,,0.00,Wunderground v.1.15,2013-03-31 11:58:00,
2013-03-31 06:03:00,32.3,28.3,30.23,WNW,289,0.0,1.0,85,0.00,,,0.00,Wunderground v.1.15,2013-03-31 12:03:00,
2013-03-31 06:09:00,32.0,27.7,30.23,WNW,289,0.0,1.0,84,0.00,,,0.00,Wunderground v.1.15,2013-03-31 12:09:00,
2013-03-31 06:14:00,32.1,28.4,30.23,WNW,289,0.0,1.0,86,0.00,,,0.00,Wunderground v.1.15,2013-03-31 12:14:00,
2013-03-31 06:20:00,33.0,29.0,30.23,WNW,289,0.0,1.0,85,0.00,,,0.00,Wunderground v.1.15,2013-03-31 12:20:00,
2013-03-31 06:25:00,32.9,28.6,30.23,WNW,289,0.0,1.0,84,0.00,,,0.00,Wunderground v.1.15,2013-03-31 12:25:00,
2013-03-31 06:31:00,32.9,28.9,30.23,WNW,289,0.0,1.0,85,0.00,,,0.00,Wunderground v.1.15,2013-03-31 12:31:00,
2013-03-31 06:37:00,32.6,28.6,30.23,WNW,289,0.0,1.0,85,0.00,,,0.00,Wunderground v.1.15,2013-03-31 12:37:00,
2013-03-31 06:43:00,31.6,27.0,30.23,NE,46,0.0,3.0,83,0.00,,,0.00,Wunderground v.1.15,2013-03-31 12:43:00,
2013-03-31 06:48:00,29.8,25.8,30.23,NE,46,0.0,3.0,85,0.00,,,0.00,Wunderground v.1.15,2013-03-31 12:48:00,
2013-03-31 06:54:00,29.7,26.3,30.23,NE,46,0.0,1.0,87,0.00,,,0.00,Wunderground v.1.15,2013-03-31 12:54:00,
2013-03-31 07:00:00,30.5,27.4,30.23,NE,46,0.0,1.0,88,0.00,,,0.00,Wunderground v.1.15,2013-03-31 13:00:00,
2013-03-31 07:06:00,30.6,27.2,30.23,NE,46,0.0,1.0,87,0.00,,,0.00,Wunderground v.1.15,2013-03-31 13:06:00,
2013-03-31 07:11:00,30.2,26.8,30.24,NE,46,0.0,1.0,87,0.00,,,0.00,Wunderground v.1.15,2013-03-31 13:11:00,
2013-03-31 07:16:00,30.2,27.1,30.23,NE,46,0.0,1.0,88,0.00,,,0.00,Wunderground v.1.15,2013-03-31 13:16:00,
2013-03-31 07:21:00,30.1,27.0,30.24,NE,46,0.0,1.0,88,0.00,,,0.00,Wunderground v.1.15,2013-03-31 13:21:00,
2013-03-31 07:27:00,31.0,28.4,30.23,NE,46,0.0,1.0,90,0.00,,,0.00,Wunderground v.1.15,2013-03-31 13:27:00,
2013-03-31 07:32:00,31.8,28.9,30.24,NE,45,0.0,1.0,89,0.00,,,0.00,Wunderground v.1.15,2013-03-31 13:32:00,
2013-03-31 07:38:00,31.7,28.3,30.24,NE,45,0.0,1.0,87,0.00,,,0.00,Wunderground v.1.15,2013-03-31 13:38:00,
2013-03-31 07:43:00,31.4,28.0,30.24,NE,45,0.0,1.0,87,0.00,,,0.00,Wunderground v.1.15,2013-03-31 13:43:00,
2013-03-31 07:48:00,30.7,27.3,30.24,NE,45,0.0,1.0,87,0.00,,,0.00,Wunderground v.1.15,2013-03-31 13:48:00,
2013-03-31 07:53:00,30.7,27.6,30.24,NE,45,0.0,1.0,88,0.00,,,0.00,Wunderground v.1.15,2013-03-31 13:53:00,
2013-03-31 07:59:00,31.8,28.9,30.24,NE,45,0.0,1.0,89,0.00,,,0.00,Wunderground v.1.15,2013-03-31 13:59:00,
2013-03-31 08:05:00,32.4,29.2,30.24,NE,45,0.0,1.0,88,0.00,,,0.00,Wunderground v.1.15,2013-03-31 14:05:00,
2013-03-31 08:11:00,32.4,29.0,30.24,NE,45,0.0,1.0,87,0.00,,,0.00,Wunderground v.1.15,2013-03-31 14:11:00,
2013-03-31 08:16:00,32.4,29.0,30.24,NE,45,0.0,1.0,87,0.00,,,0.00,Wunderground v.1.15,2013-03-31 14:16:00,
2013-03-31 08:22:00,32.7,29.3,30.24,NE,45,0.0,1.0,87,0.00,,,0.00,Wunderground v.1.15,2013-03-31 14:22:00,
2013-03-31 08:27:00,32.5,29.1,30.24,NE,45,0.0,1.0,87,0.00,,,0.00,Wunderground v.1.15,2013-03-31 14:27:00,
2013-03-31 08:33:00,33.1,29.9,30.24,NE,45,0.0,1.0,88,0.00,,,0.00,Wunderground v.1.15,2013-03-31 14:33:00,
2013-03-31 08:39:00,34.3,30.8,30.24,NE,45,0.0,1.0,87,0.00,,,0.00,Wunderground v.1.15,2013-03-31 14:39:00,
2013-03-31 08:44:00,34.8,31.0,30.24,NE,45,0.0,1.0,86,0.00,,,0.00,Wunderground v.1.15,2013-03-31 14:44:00,
2013-03-31 08:49:00,34.5,30.7,30.24,NE,45,0.0,1.0,86,0.00,,,0.00,Wunderground v.1.15,2013-03-31 14:49:00,
2013-03-31 08:55:00,34.6,31.1,30.24,NE,45,0.0,1.0,87,0.00,,,0.00,Wunderground v.1.15,2013-03-31 14:55:00,
2013-03-31 09:00:00,34.8,31.0,30.25,NE,45,0.0,1.0,86,0.00,,,0.00,Wunderground v.1.15,2013-03-31 15:00:00,
2013-03-31 09:05:00,35.1,31.0,30.25,NE,45,0.0,1.0,85,0.00,,,0.00,Wunderground v.1.15,2013-03-31 15:05:00,
2013-03-31 09:11:00,35.9,31.5,30.25,NE,45,0.0,1.0,84,0.00,,,0.00,Wunderground v.1.15,2013-03-31 15:11:00,
2013-03-31 09:16:00,36.3,32.2,30.24,NE,45,0.0,1.0,85,0.00,,,0.00,Wunderground v.1.15,2013-03-31 15:16:00,
2013-03-31 09:21:00,37.2,31.9,30.25,NE,45,0.0,1.0,81,0.00,,,0.00,Wunderground v.1.15,2013-03-31 15:21:00,
2013-03-31 09:26:00,38.3,32.0,30.25,NE,45,0.0,1.0,78,0.00,,,0.00,Wunderground v.1.15,2013-03-31 15:26:00,
2013-03-31 09:31:00,38.9,32.3,30.25,NE,45,0.0,1.0,77,0.00,,,0.00,Wunderground v.1.15,2013-03-31 15:31:00,
2013-03-31 09:37:00,40.2,32.6,30.25,NE,45,0.0,1.0,74,0.00,,,0.00,Wunderground v.1.15,2013-03-31 15:37:00,
2013-03-31 09:42:00,40.7,34.0,30.24,NE,45,0.0,1.0,77,0.00,,,0.00,Wunderground v.1.15,2013-03-31 15:42:00,
2013-03-31 09:48:00,41.4,34.1,30.24,NE,45,0.0,1.0,75,0.00,,,0.00,Wunderground v.1.15,2013-03-31 15:48:00,
2013-03-31 09:53:00,42.0,33.3,30.24,NE,45,0.0,1.0,71,0.00,,,0.00,Wunderground v.1.15,2013-03-31 15:53:00,
2013-03-31 09:58:00,43.0,33.9,30.24,NE,45,0.0,1.0,70,0.00,,,0.00,Wunderground v.1.15,2013-03-31 15:58:00,
2013-03-31 10:04:00,43.8,33.9,30.24,NE,45,0.0,1.0,68,0.00,,,0.00,Wunderground v.1.15,2013-03-31 16:04:00,
2013-03-31 10:10:00,45.1,33.6,30.24,ENE,61,0.0,1.0,64,0.00,,,0.00,Wunderground v.1.15,2013-03-31 16:10:00,
2013-03-31 10:15:00,45.8,33.1,30.24,NNE,30,1.0,2.0,61,0.00,,,0.00,Wunderground v.1.15,2013-03-31 16:15:00,
2013-03-31 10:21:00,46.2,33.1,30.23,NNE,22,1.0,2.0,60,0.00,,,0.00,Wunderground v.1.15,2013-03-31 16:21:00,
2013-03-31 10:27:00,46.9,34.1,30.23,NNE,22,1.0,2.0,61,0.00,,,0.00,Wunderground v.1.15,2013-03-31 16:27:00,
2013-03-31 10:32:00,47.5,33.0,30.23,WSW,257,0.0,1.0,57,0.00,,,0.00,Wunderground v.1.15,2013-03-31 16:32:00,
2013-03-31 10:38:00,48.3,34.2,30.23,South,170,0.0,1.0,58,0.00,,,0.00,Wunderground v.1.15,2013-03-31 16:38:00,
2013-03-31 10:43:00,48.5,33.1,30.23,North,355,1.0,3.0,55,0.00,,,0.00,Wunderground v.1.15,2013-03-31 16:43:00,
2013-03-31 10:49:00,49.3,33.8,30.23,NE,42,1.0,3.0,55,0.00,,,0.00,Wunderground v.1.15,2013-03-31 16:49:00,
2013-03-31 10:54:00,49.5,34.4,30.23,SSE,159,1.0,2.0,56,0.00,,,0.00,Wunderground v.1.15,2013-03-31 16:54:00,
2013-03-31 11:00:00,49.6,33.6,30.23,ESE,103,2.0,2.0,54,0.00,,,0.00,Wunderground v.1.15,2013-03-31 17:00:00,
2013-03-31 11:05:00,49.3,33.8,30.23,NNE,14,1.0,3.0,55,0.00,,,0.00,Wunderground v.1.15,2013-03-31 17:05:00,
2013-03-31 11:11:00,49.8,35.2,30.23,South,170,1.0,1.0,57,0.00,,,0.00,Wunderground v.1.15,2013-03-31 17:11:00,
2013-03-31 11:16:00,50.3,34.7,30.23,East,91,1.0,1.0,55,0.00,,,0.00,Wunderground v.1.15,2013-03-31 17:16:00,
2013-03-31 11:22:00,50.7,34.6,30.23,South,190,1.0,4.0,54,0.00,,,0.00,Wunderground v.1.15,2013-03-31 17:22:00,
2013-03-31 11:28:00,51.2,35.1,30.23,South,171,1.0,4.0,54,0.00,,,0.00,Wunderground v.1.15,2013-03-31 17:28:00,
2013-03-31 11:34:00,52.1,35.5,30.23,SSE,161,0.0,1.0,53,0.00,,,0.00,Wunderground v.1.15,2013-03-31 17:34:00,
2013-03-31 11:40:00,52.1,35.5,30.23,SE,144,1.0,1.0,53,0.00,,,0.00,Wunderground v.1.15,2013-03-31 17:40:00,
2013-03-31 11:46:00,52.8,34.7,30.22,North,5,1.0,2.0,50,0.00,,,0.00,Wunderground v.1.15,2013-03-31 17:46:00,
2013-03-31 11:52:00,53.6,35.4,30.22,East,94,1.0,2.0,50,0.00,,,0.00,Wunderground v.1.15,2013-03-31 17:52:00,
2013-03-31 11:58:00,53.9,34.1,30.22,NW,315,1.0,3.0,47,0.00,,,0.00,Wunderground v.1.15,2013-03-31 17:58:00,
2013-03-31 12:04:00,53.7,34.5,30.22,East,96,1.0,2.0,48,0.00,,,0.00,Wunderground v.1.15,2013-03-31 18:04:00,
2013-03-31 12:09:00,54.1,34.3,30.22,East,96,1.0,2.0,47,0.00,,,0.00,Wunderground v.1.15,2013-03-31 18:09:00,
2013-03-31 12:14:00,54.8,36.0,30.22,South,171,1.0,2.0,49,0.00,,,0.00,Wunderground v.1.15,2013-03-31 18:14:00,
2013-03-31 12:20:00,54.8,34.4,30.22,West,271,1.0,1.0,46,0.00,,,0.00,Wunderground v.1.15,2013-03-31 18:20:00,
2013-03-31 12:26:00,54.7,33.2,30.22,ESE,106,1.0,4.0,44,0.00,,,0.00,Wunderground v.1.15,2013-03-31 18:26:00,
2013-03-31 12:31:00,54.8,34.9,30.22,ESE,114,2.0,2.0,47,0.00,,,0.00,Wunderground v.1.15,2013-03-31 18:31:00,
2013-03-31 12:37:00,54.2,32.7,30.22,SW,227,1.0,3.0,44,0.00,,,0.00,Wunderground v.1.15,2013-03-31 18:37:00,
2013-03-31 12:42:00,53.8,33.5,30.21,SSW,202,1.0,2.0,46,0.00,,,0.00,Wunderground v.1.15,2013-03-31 18:42:00,
2013-03-31 12:47:00,54.5,33.6,30.21,SSW,206,1.0,3.0,45,0.00,,,0.00,Wunderground v.1.15,2013-03-31 18:47:00,
2013-03-31 12:53:00,55.6,35.1,30.20,South,171,1.0,1.0,46,0.00,,,0.00,Wunderground v.1.15,2013-03-31 18:53:00,
2013-03-31 12:59:00,56.1,33.9,30.20,North,5,1.0,4.0,43,0.00,,,0.00,Wunderground v.1.15,2013-03-31 18:59:00,
2013-03-31 13:04:00,56.0,33.2,30.20,NNW,348,2.0,5.0,42,0.00,,,0.00,Wunderground v.1.15,2013-03-31 19:04:00,
2013-03-31 13:09:00,56.0,33.2,30.20,NNW,340,3.0,5.0,42,0.00,,,0.00,Wunderground v.1.15,2013-03-31 19:09:00,
2013-03-31 13:14:00,56.1,33.9,30.20,East,80,2.0,3.0,43,0.00,,,0.00,Wunderground v.1.15,2013-03-31 19:14:00,
2013-03-31 13:19:00,57.2,33.7,30.20,East,86,1.0,4.0,41,0.00,,,0.00,Wunderground v.1.15,2013-03-31 19:19:00,
2013-03-31 13:24:00,56.9,33.4,30.20,NNW,348,2.0,5.0,41,0.00,,,0.00,Wunderground v.1.15,2013-03-31 19:24:00,
2013-03-31 13:29:00,58.3,34.1,30.19,North,349,1.0,5.0,40,0.00,,,0.00,Wunderground v.1.15,2013-03-31 19:29:00,
2013-03-31 13:35:00,57.8,33.6,30.19,East,101,1.0,3.0,40,0.00,,,0.00,Wunderground v.1.15,2013-03-31 19:35:00,
2013-03-31 13:40:00,58.2,34.6,30.19,NE,49,1.0,2.0,41,0.00,,,0.00,Wunderground v.1.15,2013-03-31 19:40:00,
2013-03-31 13:46:00,57.7,32.2,30.18,SW,217,2.0,5.0,38,0.00,,,0.00,Wunderground v.1.15,2013-03-31 19:46:00,
2013-03-31 13:52:00,58.8,33.9,30.18,East,86,2.0,2.0,39,0.00,,,0.00,Wunderground v.1.15,2013-03-31 19:52:00,
2013-03-31 13:58:00,58.3,33.4,30.18,NW,312,1.0,5.0,39,0.00,,,0.00,Wunderground v.1.15,2013-03-31 19:58:00,
2013-03-31 14:04:00,59.5,33.2,30.18,NE,42,1.0,2.0,37,0.00,,,0.00,Wunderground v.1.15,2013-03-31 20:04:00,
2013-03-31 14:10:00,59.8,32.8,30.18,North,5,1.0,1.0,36,0.00,,,0.00,Wunderground v.1.15,2013-03-31 20:10:00,
2013-03-31 14:16:00,59.2,33.6,30.17,North,360,2.0,3.0,38,0.00,,,0.00,Wunderground v.1.15,2013-03-31 20:16:00,
2013-03-31 14:21:00,59.6,33.9,30.17,SE,144,2.0,2.0,38,0.00,,,0.00,Wunderground v.1.15,2013-03-31 20:21:00,
2013-03-31 14:27:00,59.2,34.2,30.17,SW,218,2.0,2.0,39,0.00,,,0.00,Wunderground v.1.15,2013-03-31 20:27:00,
2013-03-31 14:32:00,59.4,33.8,30.16,WNW,283,1.0,6.0,38,0.00,,,0.00,Wunderground v.1.15,2013-03-31 20:32:00,
2013-03-31 14:37:00,60.3,35.2,30.16,East,98,1.0,6.0,39,0.00,,,0.00,Wunderground v.1.15,2013-03-31 20:37:00,
2013-03-31 14:42:00,59.6,32.6,30.16,NNW,329,2.0,5.0,36,0.00,,,0.00,Wunderground v.1.15,2013-03-31 20:42:00,
2013-03-31 14:48:00,60.0,34.3,30.15,NW,321,2.0,5.0,38,0.00,,,0.00,Wunderground v.1.15,2013-03-31 20:48:00,
2013-03-31 14:54:00,59.3,33.0,30.15,East,92,1.0,2.0,37,0.00,,,0.00,Wunderground v.1.15,2013-03-31 20:54:00,
2013-03-31 15:00:00,59.7,32.7,30.15,East,92,1.0,1.0,36,0.00,,,0.00,Wunderground v.1.15,2013-03-31 21:00:00,
2013-03-31 15:06:00,59.2,32.9,30.14,South,171,1.0,2.0,37,0.00,,,0.00,Wunderground v.1.15,2013-03-31 21:06:00,
2013-03-31 15:12:00,59.8,33.5,30.14,NNE,14,1.0,2.0,37,0.00,,,0.00,Wunderground v.1.15,2013-03-31 21:12:00,
2013-03-31 15:17:00,60.9,34.4,30.14,ESE,116,2.0,2.0,37,0.00,,,0.00,Wunderground v.1.15,2013-03-31 21:17:00,
2013-03-31 15:23:00,59.6,32.6,30.13,ENE,70,2.0,3.0,36,0.00,,,0.00,Wunderground v.1.15,2013-03-31 21:23:00,
2013-03-31 15:29:00,61.1,35.3,30.13,NE,41,1.0,3.0,38,0.00,,,0.00,Wunderground v.1.15,2013-03-31 21:29:00,
2013-03-31 15:34:00,61.2,33.3,30.13,NNW,345,1.0,5.0,35,0.00,,,0.00,Wunderground v.1.15,2013-03-31 21:34:00,
2013-03-31 15:40:00,61.4,32.8,30.12,NNE,22,2.0,2.0,34,0.00,,,0.00,Wunderground v.1.15,2013-03-31 21:40:00,
2013-03-31 15:45:00,60.8,32.2,30.12,North,349,1.0,3.0,34,0.00,,,0.00,Wunderground v.1.15,2013-03-31 21:45:00,
2013-03-31 15:51:00,60.8,34.3,30.11,East,99,1.0,1.0,37,0.00,,,0.00,Wunderground v.1.15,2013-03-31 21:51:00,
2013-03-31 15:56:00,60.8,33.7,30.11,ESE,102,1.0,2.0,36,0.00,,,0.00,Wunderground v.1.15,2013-03-31 21:56:00,
2013-03-31 16:01:00,61.7,33.7,30.11,NNW,337,1.0,3.0,35,0.00,,,0.00,Wunderground v.1.15,2013-03-31 22:01:00,
2013-03-31 16:06:00,60.4,32.6,30.11,North,360,2.0,4.0,35,0.00,,,0.00,Wunderground v.1.15,2013-03-31 22:06:00,
2013-03-31 16:12:00,61.2,34.0,30.11,East,84,2.0,2.0,36,0.00,,,0.00,Wunderground v.1.15,2013-03-31 22:12:00,
2013-03-31 16:17:00,61.7,33.7,30.10,East,100,1.0,2.0,35,0.00,,,0.00,Wunderground v.1.15,2013-03-31 22:17:00,
2013-03-31 16:23:00,60.9,33.7,30.10,SSW,199,1.0,2.0,36,0.00,,,0.00,Wunderground v.1.15,2013-03-31 22:23:00,
2013-03-31 16:28:00,60.0,32.2,30.09,South,181,2.0,2.0,35,0.00,,,0.00,Wunderground v.1.15,2013-03-31 22:28:00,
2013-03-31 16:34:00,59.6,33.3,30.09,SSW,211,2.0,2.0,37,0.00,,,0.00,Wunderground v.1.15,2013-03-31 22:34:00,
2013-03-31 16:39:00,60.0,32.2,30.09,NNW,337,1.0,3.0,35,0.00,,,0.00,Wunderground v.1.15,2013-03-31 22:39:00,
2013-03-31 16:44:00,60.9,34.4,30.09,NNE,14,1.0,1.0,37,0.00,,,0.00,Wunderground v.1.15,2013-03-31 22:44:00,
2013-03-31 16:50:00,60.9,33.7,30.08,NNE,14,1.0,1.0,36,0.00,,,0.00,Wunderground v.1.15,2013-03-31 22:50:00,
2013-03-31 16:55:00,61.0,33.1,30.08,NNE,21,1.0,2.0,35,0.00,,,0.00,Wunderground v.1.15,2013-03-31 22:55:00,
2013-03-31 17:00:00,60.2,32.4,30.08,NNE,21,1.0,1.0,35,0.00,,,0.00,Wunderground v.1.15,2013-03-31 23:00:00,
2013-03-31 17:06:00,60.3,32.5,30.08,East,81,0.0,1.0,35,0.00,,,0.00,Wunderground v.1.15,2013-03-31 23:06:00,
2013-03-31 17:12:00,60.2,33.1,30.08,East,81,1.0,2.0,36,0.00,,,0.00,Wunderground v.1.15,2013-03-31 23:12:00,
2013-03-31 17:17:00,59.9,32.9,30.07,South,185,1.0,2.0,36,0.00,,,0.00,Wunderground v.1.15,2013-03-31 23:17:00,
2013-03-31 17:22:00,60.0,33.6,30.07,South,185,0.0,1.0,37,0.00,,,0.00,Wunderground v.1.15,2013-03-31 23:22:00,
2013-03-31 17:28:00,59.7,32.0,30.07,NNE,21,1.0,3.0,35,0.00,,,0.00,Wunderground v.1.15,2013-03-31 23:28:00,
2013-03-31 17:34:00,59.4,33.1,30.06,NNE,21,0.0,1.0,37,0.00,,,0.00,Wunderground v.1.15,2013-03-31 23:34:00,
2013-03-31 17:39:00,59.5,33.2,30.06,NNE,25,0.0,1.0,37,0.00,,,0.00,Wunderground v.1.15,2013-03-31 23:39:00,
2013-03-31 17:44:00,59.4,35.1,30.06,NNE,25,1.0,1.0,40,0.00,,,0.00,Wunderground v.1.15,2013-03-31 23:44:00,
2013-03-31 17:49:00,59.3,35.0,30.06,NNE,26,0.0,1.0,40,0.00,,,0.00,Wunderground v.1.15,2013-03-31 23:49:00,
2013-03-31 17:54:00,59.0,33.4,30.06,NNW,337,1.0,3.0,38,0.00,,,0.00,Wunderground v.1.15,2013-03-31 23:54:00,
2013-03-31 17:59:00,58.9,32.7,30.06,NW,319,1.0,4.0,37,0.00,,,0.00,Wunderground v.1.15,2013-03-31 23:59:00,
2013-03-31 18:05:00,58.6,34.3,30.05,NNW,329,1.0,4.0,40,0.00,,,0.00,Wunderground v.1.15,2013-04-01 00:05:00,
2013-03-31 18:10:00,58.1,33.2,30.05,NNW,329,0.0,1.0,39,0.00,,,0.00,Wunderground v.1.15,2013-04-01 00:10:00,
2013-03-31 18:16:00,58.4,33.5,30.05,NNW,329,0.0,1.0,39,0.00,,,0.00,Wunderground v.1.15,2013-04-01 00:16:00,
2013-03-31 18:21:00,58.3,33.4,30.05,NNW,329,0.0,1.0,39,0.00,,,0.00,Wunderground v.1.15,2013-04-01 00:21:00,
2013-03-31 18:27:00,58.0,33.2,30.04,NNW,329,0.0,1.0,39,0.00,,,0.00,Wunderground v.1.15,2013-04-01 00:27:00,
2013-03-31 18:32:00,57.9,33.1,30.04,NNW,329,0.0,1.0,39,0.00,,,0.00,Wunderground v.1.15,2013-04-01 00:32:00,
2013-03-31 18:37:00,58.1,33.2,30.04,NNW,329,0.0,1.0,39,0.00,,,0.00,Wunderground v.1.15,2013-04-01 00:37:00,
2013-03-31 18:43:00,57.7,33.5,30.04,NNW,329,0.0,1.0,40,0.00,,,0.00,Wunderground v.1.15,2013-04-01 00:43:00,
2013-03-31 18:48:00,57.3,33.2,30.03,NNW,329,0.0,1.0,40,0.00,,,0.00,Wunderground v.1.15,2013-04-01 00:48:00,
2013-03-31 18:54:00,57.0,32.9,30.03,NNW,329,0.0,1.0,40,0.00,,,0.00,Wunderground v.1.15,2013-04-01 00:54:00,
2013-03-31 19:00:00,56.6,34.3,30.03,NNW,329,0.0,1.0,43,0.00,,,0.00,Wunderground v.1.15,2013-04-01 01:00:00,
2013-03-31 19:06:00,56.5,33.1,30.03,NNW,329,0.0,1.0,41,0.00,,,0.00,Wunderground v.1.15,2013-04-01 01:06:00,
2013-03-31 19:12:00,56.8,32.7,30.02,NNW,329,0.0,1.0,40,0.00,,,0.00,Wunderground v.1.15,2013-04-01 01:12:00,
2013-03-31 19:18:00,56.6,33.2,30.02,NNW,329,0.0,1.0,41,0.00,,,0.00,Wunderground v.1.15,2013-04-01 01:18:00,
2013-03-31 19:24:00,56.0,33.2,30.02,NNW,329,0.0,1.0,42,0.00,,,0.00,Wunderground v.1.15,2013-04-01 01:24:00,
2013-03-31 19:29:00,55.8,33.6,30.02,NNW,329,0.0,1.0,43,0.00,,,0.00,Wunderground v.1.15,2013-04-01 01:29:00,
2013-03-31 19:34:00,55.5,33.3,30.02,NNW,329,0.0,1.0,43,0.00,,,0.00,Wunderground v.1.15,2013-04-01 01:34:00,
2013-03-31 19:40:00,54.9,33.9,30.02,NNW,329,0.0,1.0,45,0.00,,,0.00,Wunderground v.1.15,2013-04-01 01:40:00,
2013-03-31 19:46:00,54.3,33.9,30.02,NNW,329,0.0,1.0,46,0.00,,,0.00,Wunderground v.1.15,2013-04-01 01:46:00,
2013-03-31 19:51:00,53.7,33.9,30.02,NNW,329,0.0,1.0,47,0.00,,,0.00,Wunderground v.1.15,2013-04-01 01:51:00,
2013-03-31 19:57:00,53.2,32.9,30.02,NNW,329,0.0,1.0,46,0.00,,,0.00,Wunderground v.1.15,2013-04-01 01:57:00,
2013-03-31 20:03:00,53.1,32.8,30.02,NNW,329,0.0,1.0,46,0.00,,,0.00,Wunderground v.1.15,2013-04-01 02:03:00,
2013-03-31 20:08:00,52.3,33.2,30.01,NNW,329,0.0,1.0,48,0.00,,,0.00,Wunderground v.1.15,2013-04-01 02:08:00,
2013-03-31 20:14:00,51.2,33.7,30.01,NNW,329,0.0,1.0,51,0.00,,,0.00,Wunderground v.1.15,2013-04-01 02:14:00,
2013-03-31 20:20:00,51.2,33.2,30.01,NNW,329,0.0,1.0,50,0.00,,,0.00,Wunderground v.1.15,2013-04-01 02:20:00,
2013-03-31 20:26:00,51.4,32.9,30.01,NNW,329,0.0,1.0,49,0.00,,,0.00,Wunderground v.1.15,2013-04-01 02:26:00,
2013-03-31 20:31:00,51.9,31.7,30.01,NNW,329,0.0,1.0,46,0.00,,,0.00,Wunderground v.1.15,2013-04-01 02:31:00,
2013-03-31 20:37:00,51.3,32.8,30.01,NNW,329,0.0,1.0,49,0.00,,,0.00,Wunderground v.1.15,2013-04-01 02:37:00,
2013-03-31 20:42:00,49.9,33.0,30.01,NNW,329,0.0,1.0,52,0.00,,,0.00,Wunderground v.1.15,2013-04-01 02:42:00,
2013-03-31 20:48:00,48.8,33.3,30.01,NNW,329,0.0,1.0,55,0.00,,,0.00,Wunderground v.1.15,2013-04-01 02:48:00,
2013-03-31 20:54:00,48.7,33.2,30.01,NNW,329,0.0,1.0,55,0.00,,,0.00,Wunderground v.1.15,2013-04-01 02:54:00,
2013-03-31 20:59:00,48.7,33.2,30.01,NNW,329,0.0,1.0,55,0.00,,,0.00,Wunderground v.1.15,2013-04-01 02:59:00,
2013-03-31 21:05:00,48.1,33.6,30.01,NNW,329,0.0,1.0,57,0.00,,,0.00,Wunderground v.1.15,2013-04-01 03:05:00,
2013-03-31 21:10:00,47.5,33.4,30.01,NNW,329,0.0,1.0,58,0.00,,,0.00,Wunderground v.1.15,2013-04-01 03:10:00,
2013-03-31 21:16:00,46.7,33.1,30.01,NNW,329,0.0,2.0,59,0.00,,,0.00,Wunderground v.1.15,2013-04-01 03:16:00,
2013-03-31 21:21:00,46.6,33.0,30.01,NNW,329,0.0,1.0,59,0.00,,,0.00,Wunderground v.1.15,2013-04-01 03:21:00,
2013-03-31 21:27:00,46.7,32.7,30.01,NNW,329,0.0,1.0,58,0.00,,,0.00,Wunderground v.1.15,2013-04-01 03:27:00,
2013-03-31 21:33:00,46.2,32.7,30.01,NNW,329,0.0,1.0,59,0.00,,,0.00,Wunderground v.1.15,2013-04-01 03:33:00,
2013-03-31 21:39:00,45.8,32.7,30.01,NNW,329,0.0,1.0,60,0.00,,,0.00,Wunderground v.1.15,2013-04-01 03:39:00,
2013-03-31 21:44:00,45.6,32.5,30.02,NNW,329,0.0,1.0,60,0.00,,,0.00,Wunderground v.1.15,2013-04-01 03:44:00,
2013-03-31 21:50:00,45.7,32.6,30.01,NNW,329,0.0,1.0,60,0.00,,,0.00,Wunderground v.1.15,2013-04-01 03:50:00,
2013-03-31 21:55:00,45.5,33.2,30.01,NNW,329,0.0,1.0,62,0.00,,,0.00,Wunderground v.1.15,2013-04-01 03:55:00,
2013-03-31 22:00:00,45.3,32.2,30.01,NNW,329,0.0,1.0,60,0.00,,,0.00,Wunderground v.1.15,2013-04-01 04:00:00,
2013-03-31 22:01:00,45.3,32.2,30.02,NNW,329,0.0,1.0,60,0.00,,,0.00,Wunderground v.1.15,2013-04-01 04:01:00,
2013-03-31 22:03:00,45.2,32.1,30.01,NNW,329,0.0,1.0,60,0.00,,,0.00,Wunderground v.1.15,2013-04-01 04:03:00,
2013-03-31 22:08:00,44.7,32.1,30.01,NNW,329,1.0,2.0,61,0.00,,,0.00,Wunderground v.1.15,2013-04-01 04:08:00,
2013-03-31 22:13:00,44.2,31.6,30.01,NNW,329,1.0,1.0,61,0.00,,,0.00,Wunderground v.1.15,2013-04-01 04:13:00,
2013-03-31 22:14:00,44.1,31.9,30.01,NNW,329,1.0,2.0,62,0.00,,,0.00,Wunderground v.1.15,2013-04-01 04:14:00,
2013-03-31 22:19:00,44.2,32.0,30.01,NNW,329,1.0,2.0,62,0.00,,,0.00,Wunderground v.1.15,2013-04-01 04:19:00,
2013-03-31 22:24:00,44.3,32.5,30.01,NNW,329,1.0,2.0,63,0.00,,,0.00,Wunderground v.1.15,2013-04-01 04:24:00,
2013-03-31 22:30:00,44.6,31.6,30.01,NNW,329,1.0,1.0,60,0.00,,,0.00,Wunderground v.1.15,2013-04-01 04:30:00,
2013-03-31 22:36:00,44.5,31.9,30.01,NNW,329,1.0,3.0,61,0.00,,,0.00,Wunderground v.1.15,2013-04-01 04:36:00,
2013-03-31 22:41:00,44.5,31.9,30.01,NNW,329,1.0,1.0,61,0.00,,,0.00,Wunderground v.1.15,2013-04-01 04:41:00,
2013-03-31 22:47:00,44.1,31.5,30.01,NNW,329,0.0,1.0,61,0.00,,,0.00,Wunderground v.1.15,2013-04-01 04:47:00,
2013-03-31 22:53:00,43.7,31.5,30.01,NNW,329,1.0,2.0,62,0.00,,,0.00,Wunderground v.1.15,2013-04-01 04:53:00,
2013-03-31 22:59:00,42.7,31.0,30.01,NNW,329,1.0,2.0,63,0.00,,,0.00,Wunderground v.1.15,2013-04-01 04:59:00,
2013-03-31 23:05:00,42.5,31.6,30.01,NNW,329,1.0,2.0,65,0.00,,,0.00,Wunderground v.1.15,2013-04-01 05:05:00,
2013-03-31 23:10:00,42.7,31.7,30.01,NNW,329,0.0,1.0,65,0.00,,,0.00,Wunderground v.1.15,2013-04-01 05:10:00,
2013-03-31 23:16:00,42.6,31.7,30.01,NNW,329,1.0,2.0,65,0.00,,,0.00,Wunderground v.1.15,2013-04-01 05:16:00,
2013-03-31 23:22:00,41.7,30.4,30.01,NNW,329,1.0,1.0,64,0.00,,,0.00,Wunderground v.1.15,2013-04-01 05:22:00,
2013-03-31 23:27:00,42.0,31.5,30.01,NNW,329,1.0,2.0,66,0.00,,,0.00,Wunderground v.1.15,2013-04-01 05:27:00,
2013-03-31 23:33:00,41.9,31.7,30.01,NNW,329,1.0,1.0,67,0.00,,,0.00,Wunderground v.1.15,2013-04-01 05:33:00,
2013-03-31 23:38:00,41.4,30.9,30.01,NNW,329,0.0,1.0,66,0.00,,,0.00,Wunderground v.1.15,2013-04-01 05:38:00,
2013-03-31 23:44:00,41.1,31.3,30.01,NNW,329,0.0,2.0,68,0.00,,,0.00,Wunderground v.1.15,2013-04-01 05:44:00,
2013-03-31 23:50:00,40.7,31.0,30.01,NNW,329,1.0,1.0,68,0.00,,,0.00,Wunderground v.1.15,2013-04-01 05:50:00,
2013-03-31 23:55:00,40.4,31.0,30.01,NNW,329,0.0,1.0,69,0.00,,,0.00,Wunderground v.1.15,2013-04-01 05:55:00,